createdAt,value
2018-05-11T00:01:46.151Z,3.53
2018-05-11T00:04:13.702Z,4.03
2018-05-11T00:06:41.194Z,4.03
2018-05-11T00:09:08.656Z,4.27
2018-05-11T00:11:36.182Z,3.77
2018-05-11T00:14:03.719Z,3.97
2018-05-11T00:16:31.199Z,4.03
2018-05-11T00:18:58.658Z,3.83
2018-05-11T00:21:26.140Z,3.47
2018-05-11T00:23:53.598Z,3.40
2018-05-11T00:26:21.086Z,3.90
2018-05-11T00:28:48.558Z,3.33
2018-05-11T00:31:16.054Z,4.33
2018-05-11T00:33:43.519Z,3.77
2018-05-11T00:36:11.073Z,3.80
2018-05-11T00:38:38.626Z,3.33
2018-05-11T00:41:06.098Z,3.93
2018-05-11T00:43:33.583Z,4.47
2018-05-11T00:46:01.051Z,3.53
2018-05-11T00:48:28.541Z,4.27
2018-05-11T00:50:56.126Z,3.80
2018-05-11T00:53:24.638Z,3.60
2018-05-11T00:55:52.102Z,4.10
2018-05-11T00:58:19.662Z,3.87
2018-05-11T01:00:47.182Z,4.17
2018-05-11T01:03:14.669Z,4.13
2018-05-11T01:05:42.134Z,3.70
2018-05-11T01:08:09.663Z,4.10
2018-05-11T01:10:37.207Z,4.13
2018-05-11T01:13:04.766Z,4.40
2018-05-11T01:15:32.223Z,4.13
2018-05-11T01:17:59.713Z,3.73
2018-05-11T01:20:27.243Z,3.80
2018-05-11T01:22:54.799Z,4.47
2018-05-11T01:25:22.258Z,3.97
2018-05-11T01:27:49.751Z,4.07
2018-05-11T01:30:17.217Z,4.67
2018-05-11T01:32:44.711Z,4.27
2018-05-11T01:35:12.166Z,4.17
2018-05-11T01:37:39.751Z,4.07
2018-05-11T01:40:07.239Z,4.10
2018-05-11T01:42:34.720Z,4.10
2018-05-11T01:45:02.191Z,4.23
2018-05-11T01:47:29.650Z,3.63
2018-05-11T01:49:57.162Z,4.50
2018-05-11T01:52:24.747Z,4.47
2018-05-11T01:54:52.256Z,3.77
2018-05-11T01:57:19.788Z,4.77
2018-05-11T01:59:47.268Z,4.33
2018-05-11T02:02:14.762Z,4.50
2018-05-11T02:04:42.262Z,4.27
2018-05-11T02:07:09.799Z,4.87
2018-05-11T02:09:37.334Z,4.37
2018-05-11T02:12:04.817Z,4.93
2018-05-11T02:14:32.318Z,4.57
2018-05-11T02:16:59.782Z,4.37
2018-05-11T02:19:27.268Z,3.63
2018-05-11T02:21:54.735Z,4.63
2018-05-11T02:24:22.288Z,4.53
2018-05-11T02:26:49.849Z,4.40
2018-05-11T02:29:17.418Z,5.03
2018-05-11T02:31:44.895Z,4.87
2018-05-11T02:34:12.403Z,5.07
2018-05-11T02:36:39.884Z,5.53
2018-05-11T02:39:07.369Z,5.37
2018-05-11T02:41:34.825Z,4.93
2018-05-11T02:44:02.362Z,4.90
2018-05-11T02:46:29.820Z,4.80
2018-05-11T02:48:57.357Z,4.30
2018-05-11T02:51:24.862Z,4.83
2018-05-11T02:53:52.411Z,4.10
2018-05-11T02:56:19.902Z,4.90
2018-05-11T02:58:47.405Z,4.80
2018-05-11T03:01:14.968Z,5.40
2018-05-11T03:03:42.631Z,5.20
2018-05-11T03:06:10.334Z,4.83
2018-05-11T03:08:37.848Z,4.30
2018-05-11T03:11:05.342Z,5.13
2018-05-11T03:13:32.817Z,4.60
2018-05-11T03:16:00.312Z,4.30
2018-05-11T03:18:27.829Z,4.83
2018-05-11T03:20:55.278Z,4.63
2018-05-11T03:23:22.742Z,5.40
2018-05-11T03:25:50.226Z,5.13
2018-05-11T03:28:18.122Z,4.50
2018-05-11T03:30:45.635Z,4.80
2018-05-11T03:33:13.144Z,5.17
2018-05-11T03:35:40.631Z,5.47
2018-05-11T03:38:08.090Z,5.50
2018-05-11T03:40:35.614Z,4.93
2018-05-11T03:43:03.075Z,5.47
2018-05-11T03:45:30.566Z,5.80
2018-05-11T03:47:58.027Z,6.40
2018-05-11T03:50:25.518Z,7.50
2018-05-11T03:52:52.990Z,8.60
2018-05-11T03:55:20.489Z,7.10
2018-05-11T03:57:47.955Z,7.70
2018-05-11T04:00:15.462Z,9.07
2018-05-11T04:02:54.899Z,8.67
2018-05-11T04:05:34.265Z,8.97
2018-05-11T04:08:14.555Z,10.87
2018-05-11T04:10:42.079Z,10.13
2018-05-11T04:13:09.559Z,10.77
2018-05-11T04:15:37.071Z,11.93
2018-05-11T04:18:05.545Z,9.63
2018-05-11T04:20:33.015Z,10.07
2018-05-11T04:23:00.594Z,10.10
2018-05-11T04:25:29.074Z,12.60
2018-05-11T04:27:56.563Z,8.83
2018-05-11T04:30:24.073Z,8.67
2018-05-11T04:32:51.571Z,9.17
2018-05-11T04:35:19.040Z,10.20
2018-05-11T04:37:46.544Z,10.60
2018-05-11T04:40:14.023Z,10.53
2018-05-11T04:42:41.519Z,11.13
2018-05-11T04:45:09.106Z,11.10
2018-05-11T04:47:36.603Z,11.57
2018-05-11T04:50:04.074Z,11.27
2018-05-11T04:52:31.663Z,12.07
2018-05-11T04:54:59.159Z,13.03
2018-05-11T04:57:26.650Z,14.97
2018-05-11T04:59:54.115Z,9.30
2018-05-11T05:02:21.610Z,12.93
2018-05-11T05:04:49.086Z,12.00
2018-05-11T05:07:16.578Z,12.70
2018-05-11T05:09:44.064Z,13.10
2018-05-11T05:12:11.567Z,13.53
2018-05-11T05:14:39.050Z,13.97
2018-05-11T05:17:06.608Z,14.37
2018-05-11T05:19:34.086Z,14.30
2018-05-11T05:22:01.627Z,13.37
2018-05-11T05:24:29.100Z,12.63
2018-05-11T05:26:56.643Z,12.87
2018-05-11T05:29:24.193Z,12.67
2018-05-11T05:31:51.704Z,11.50
2018-05-11T05:34:19.210Z,12.27
2018-05-11T05:36:46.708Z,11.80
2018-05-11T05:39:14.213Z,13.20
2018-05-11T05:41:41.694Z,13.13
2018-05-11T05:44:09.195Z,11.90
2018-05-11T05:46:36.690Z,12.57
2018-05-11T05:49:04.186Z,12.77
2018-05-11T05:51:31.730Z,11.77
2018-05-11T05:53:59.415Z,11.07
2018-05-11T05:56:26.900Z,11.30
2018-05-11T05:58:54.452Z,11.60
2018-05-11T06:01:21.954Z,11.27
2018-05-11T06:03:49.526Z,11.63
2018-05-11T06:06:17.013Z,11.73
2018-05-11T06:08:44.538Z,10.57
2018-05-11T06:11:12.010Z,9.20
2018-05-11T06:13:39.503Z,9.90
2018-05-11T06:16:06.989Z,10.33
2018-05-11T06:18:35.305Z,11.50
2018-05-11T06:21:02.779Z,11.50
2018-05-11T06:23:30.353Z,11.37
2018-05-11T06:25:57.844Z,10.40
2018-05-11T06:28:25.444Z,11.10
2018-05-11T06:30:52.915Z,11.73
2018-05-11T06:33:20.417Z,12.07
2018-05-11T06:35:47.886Z,11.90
2018-05-11T06:38:15.367Z,12.23
2018-05-11T06:40:42.869Z,12.17
2018-05-11T06:43:10.525Z,11.63
2018-05-11T06:45:38.069Z,12.10
2018-05-11T06:48:05.563Z,12.67
2018-05-11T06:50:33.064Z,12.57
2018-05-11T06:53:00.565Z,11.97
2018-05-11T06:55:28.082Z,10.77
2018-05-11T06:57:55.551Z,9.87
2018-05-11T07:00:23.095Z,11.17
2018-05-11T07:02:50.578Z,10.60
2018-05-11T07:05:19.794Z,10.90
2018-05-11T07:07:47.418Z,12.53
2018-05-11T07:10:14.839Z,13.70
2018-05-11T07:12:42.313Z,15.47
2018-05-11T07:15:09.815Z,15.30
2018-05-11T07:17:37.306Z,15.23
2018-05-11T07:20:04.802Z,13.37
2018-05-11T07:22:32.294Z,14.13
2018-05-11T07:24:59.831Z,13.40
2018-05-11T07:27:27.478Z,13.83
2018-05-11T07:29:54.995Z,13.33
2018-05-11T07:32:22.501Z,13.60
2018-05-11T07:34:50.015Z,12.40
2018-05-11T07:37:17.522Z,11.73
2018-05-11T07:39:45.030Z,11.33
2018-05-11T07:42:12.552Z,11.17
2018-05-11T07:44:40.135Z,10.93
2018-05-11T07:47:07.655Z,11.83
2018-05-11T07:49:35.122Z,11.20
2018-05-11T07:52:02.667Z,11.83
2018-05-11T07:54:30.230Z,12.20
2018-05-11T07:56:59.805Z,12.17
2018-05-11T07:59:27.495Z,13.00
2018-05-11T08:01:55.022Z,12.33
2018-05-11T08:04:22.634Z,12.83
2018-05-11T08:06:50.293Z,11.63
2018-05-11T08:09:17.843Z,13.10
2018-05-11T08:11:46.928Z,12.07
2018-05-11T08:14:15.561Z,11.60
2018-05-11T08:16:46.933Z,11.10
2018-05-11T08:19:14.627Z,10.80
2018-05-11T08:21:42.127Z,10.40
2018-05-11T08:24:09.720Z,11.13
2018-05-11T08:26:37.272Z,11.93
2018-05-11T08:29:04.771Z,9.93
2018-05-11T08:31:32.335Z,10.37
2018-05-11T08:33:59.831Z,9.53
2018-05-11T08:36:27.355Z,9.37
2018-05-11T08:38:54.909Z,9.63
2018-05-11T08:41:22.467Z,8.73
2018-05-11T08:43:50.134Z,9.13
2018-05-11T08:46:17.636Z,8.67
2018-05-11T08:48:45.119Z,7.87
2018-05-11T08:51:12.639Z,9.30
2018-05-11T08:53:40.131Z,9.13
2018-05-11T08:56:07.647Z,8.60
2018-05-11T08:58:35.206Z,8.03
2018-05-11T09:01:02.819Z,7.90
2018-05-11T09:03:30.318Z,8.20
2018-05-11T09:05:57.925Z,8.07
2018-05-11T09:08:25.580Z,8.43
2018-05-11T09:10:53.170Z,7.80
2018-05-11T09:13:21.180Z,7.97
2018-05-11T09:15:48.719Z,7.90
2018-05-11T09:18:16.287Z,7.73
2018-05-11T09:20:43.759Z,7.83
2018-05-11T09:23:11.260Z,8.20
2018-05-11T09:25:41.189Z,7.50
2018-05-11T09:28:08.898Z,6.57
2018-05-11T09:30:36.399Z,7.67
2018-05-11T09:33:03.886Z,6.83
2018-05-11T09:35:31.472Z,6.80
2018-05-11T09:37:59.051Z,5.60
2018-05-11T09:40:26.531Z,6.45
2018-05-11T09:42:54.099Z,6.57
2018-05-11T09:45:22.604Z,6.15
2018-05-11T09:47:50.151Z,6.07
2018-05-11T09:50:17.756Z,6.65
2018-05-11T09:52:45.242Z,6.53
2018-05-11T09:55:12.792Z,5.87
2018-05-11T09:57:40.315Z,6.78
2018-05-11T10:00:07.783Z,7.55
2018-05-11T10:02:35.331Z,6.50
2018-05-11T10:05:02.940Z,5.72
2018-05-11T10:07:30.465Z,7.25
2018-05-11T10:09:58.219Z,6.00
2018-05-11T10:12:25.730Z,7.65
2018-05-11T10:14:53.270Z,5.80
2018-05-11T10:17:20.735Z,6.35
2018-05-11T10:19:48.351Z,5.97
2018-05-11T10:22:15.899Z,7.00
2018-05-11T10:24:43.410Z,6.57
2018-05-11T10:27:10.927Z,6.57
2018-05-11T10:29:38.586Z,6.05
2018-05-11T10:32:06.071Z,5.45
2018-05-11T10:34:33.647Z,5.68
2018-05-11T10:37:01.214Z,5.00
2018-05-11T10:39:28.731Z,5.72
2018-05-11T10:41:56.291Z,6.35
2018-05-11T10:44:23.844Z,6.40
2018-05-11T10:46:51.517Z,5.65
2018-05-11T10:49:18.934Z,5.62
2018-05-11T10:51:46.394Z,6.95
2018-05-11T10:54:13.902Z,6.70
2018-05-11T10:56:41.371Z,6.35
2018-05-11T10:59:08.882Z,6.60
2018-05-11T11:01:36.359Z,7.60
2018-05-11T11:04:03.858Z,6.97
2018-05-11T11:06:31.374Z,6.72
2018-05-11T11:08:58.917Z,6.22
2018-05-11T11:11:26.395Z,6.65
2018-05-11T11:13:53.858Z,6.62
2018-05-11T11:16:21.384Z,8.02
2018-05-11T11:18:48.850Z,6.70
2018-05-11T11:21:16.365Z,7.72
2018-05-11T11:23:43.845Z,6.72
2018-05-11T11:26:11.368Z,7.30
2018-05-11T11:28:38.974Z,7.07
2018-05-11T11:31:06.498Z,7.10
2018-05-11T11:33:33.971Z,6.30
2018-05-11T11:36:01.459Z,5.60
2018-05-11T11:38:28.932Z,5.90
2018-05-11T11:40:57.428Z,6.00
2018-05-11T11:43:24.910Z,6.80
2018-05-11T11:45:52.502Z,6.65
2018-05-11T11:48:19.962Z,6.57
2018-05-11T11:50:47.451Z,5.82
2018-05-11T11:53:14.918Z,6.72
2018-05-11T11:55:42.624Z,5.90
2018-05-11T11:58:10.091Z,6.25
2018-05-11T12:00:37.709Z,6.55
2018-05-11T12:03:05.182Z,7.00
2018-05-11T12:05:32.739Z,6.07
2018-05-11T12:08:00.259Z,6.15
2018-05-11T12:10:27.868Z,6.50
2018-05-11T12:12:55.354Z,5.57
2018-05-11T12:15:22.842Z,7.12
2018-05-11T12:17:50.394Z,6.50
2018-05-11T12:20:17.987Z,5.90
2018-05-11T12:22:45.514Z,5.90
2018-05-11T12:25:13.031Z,6.62
2018-05-11T12:27:40.550Z,5.80
2018-05-11T12:30:08.010Z,5.85
2018-05-11T12:32:35.527Z,5.47
2018-05-11T12:35:02.990Z,5.95
2018-05-11T12:37:30.568Z,6.30
2018-05-11T12:39:58.035Z,5.45
2018-05-11T12:42:25.542Z,6.68
2018-05-11T12:44:53.044Z,5.87
2018-05-11T12:47:20.544Z,5.57
2018-05-11T12:49:48.011Z,5.95
2018-05-11T12:52:15.559Z,6.50
2018-05-11T12:54:43.082Z,6.30
2018-05-11T12:57:10.691Z,6.10
2018-05-11T12:59:38.171Z,6.12
2018-05-11T13:02:05.666Z,5.57
2018-05-11T13:04:33.127Z,6.07
2018-05-11T13:07:00.674Z,5.68
2018-05-11T13:09:28.138Z,6.78
2018-05-11T13:11:55.624Z,6.55
2018-05-11T13:14:23.084Z,5.80
2018-05-11T13:16:50.578Z,5.12
2018-05-11T13:19:18.999Z,6.05
2018-05-11T13:21:47.534Z,5.95
2018-05-11T13:24:15.034Z,6.20
2018-05-11T13:26:42.590Z,5.60
2018-05-11T13:29:10.097Z,5.93
2018-05-11T13:31:37.570Z,6.22
2018-05-11T13:34:05.085Z,5.55
2018-05-11T13:36:32.563Z,6.05
2018-05-11T13:39:00.125Z,5.93
2018-05-11T13:41:27.582Z,6.75
2018-05-11T13:43:55.098Z,6.15
2018-05-11T13:46:22.574Z,6.60
2018-05-11T13:48:50.134Z,6.07
2018-05-11T13:51:19.699Z,6.45
2018-05-11T13:53:47.303Z,5.72
2018-05-11T13:56:14.882Z,5.30
2018-05-11T13:58:42.407Z,6.47
2018-05-11T14:01:09.870Z,5.47
2018-05-11T14:03:37.430Z,5.80
2018-05-11T14:06:04.831Z,5.95
2018-05-11T14:08:32.357Z,5.78
2018-05-11T14:10:59.826Z,5.62
2018-05-11T14:13:27.330Z,6.53
2018-05-11T14:15:54.821Z,5.55
2018-05-11T14:18:22.392Z,6.30
2018-05-11T14:20:49.934Z,5.10
2018-05-11T14:23:17.452Z,5.40
2018-05-11T14:25:44.950Z,6.20
2018-05-11T14:28:12.517Z,5.72
2018-05-11T14:30:39.980Z,5.40
2018-05-11T14:33:07.531Z,5.40
2018-05-11T14:35:35.087Z,4.90
2018-05-11T14:38:02.589Z,5.15
2018-05-11T14:40:30.121Z,4.45
2018-05-11T14:42:57.601Z,4.93
2018-05-11T14:45:25.122Z,5.97
2018-05-11T14:47:52.583Z,5.07
2018-05-11T14:50:20.234Z,4.53
2018-05-11T14:52:47.709Z,4.12
2018-05-11T14:55:15.254Z,4.93
2018-05-11T14:57:42.714Z,4.80
2018-05-11T15:00:10.207Z,5.43
2018-05-11T15:02:37.738Z,4.50
2018-05-11T15:05:05.286Z,3.28
2018-05-11T15:07:32.751Z,2.97
2018-05-11T15:10:00.363Z,2.75
2018-05-11T15:12:27.784Z,4.28
2018-05-11T15:14:55.368Z,4.60
2018-05-11T15:17:22.835Z,5.30
2018-05-11T15:19:50.343Z,4.43
2018-05-11T15:22:17.876Z,4.87
2018-05-11T15:24:45.337Z,3.92
2018-05-11T15:27:12.804Z,3.45
2018-05-11T15:29:44.381Z,3.50
2018-05-11T15:32:11.847Z,3.85
2018-05-11T15:34:39.334Z,4.78
2018-05-11T15:37:06.791Z,3.87
2018-05-11T15:39:34.270Z,3.90
2018-05-11T15:42:01.768Z,4.87
2018-05-11T15:44:29.287Z,5.00
2018-05-11T15:46:56.784Z,4.45
2018-05-11T15:49:24.262Z,5.40
2018-05-11T15:51:51.828Z,5.72
2018-05-11T15:54:19.351Z,5.47
2018-05-11T15:56:46.815Z,5.55
2018-05-11T15:59:14.313Z,4.47
2018-05-11T16:01:41.937Z,4.72
2018-05-11T16:04:09.399Z,5.50
2018-05-11T16:06:36.938Z,7.53
2018-05-11T16:09:04.421Z,6.72
2018-05-11T16:11:32.008Z,6.78
2018-05-11T16:13:59.533Z,8.57
2018-05-11T16:16:27.023Z,8.38
2018-05-11T16:18:54.502Z,7.90
2018-05-11T16:21:21.994Z,6.72
2018-05-11T16:23:49.535Z,9.60
2018-05-11T16:26:17.032Z,9.70
2018-05-11T16:28:44.593Z,10.18
2018-05-11T16:31:12.090Z,9.77
2018-05-11T16:33:39.642Z,8.32
2018-05-11T16:36:07.137Z,9.00
2018-05-11T16:38:34.624Z,10.30
2018-05-11T16:41:02.123Z,9.75
2018-05-11T16:43:29.635Z,10.20
2018-05-11T16:45:57.192Z,9.40
2018-05-11T16:48:24.676Z,10.48
2018-05-11T16:50:52.173Z,10.57
2018-05-11T16:53:19.651Z,9.73
2018-05-11T16:55:47.276Z,10.27
2018-05-11T16:58:14.761Z,9.30
2018-05-11T17:00:42.389Z,10.10
2018-05-11T17:03:09.898Z,10.75
2018-05-11T17:05:37.486Z,10.88
2018-05-11T17:08:05.023Z,9.75
2018-05-11T17:10:32.603Z,9.98
2018-05-11T17:13:00.149Z,8.60
2018-05-11T17:15:27.618Z,10.07
2018-05-11T17:17:55.171Z,9.50
2018-05-11T17:20:22.643Z,9.93
2018-05-11T17:22:50.161Z,8.48
2018-05-11T17:25:17.622Z,9.13
2018-05-11T17:27:45.199Z,8.70
2018-05-11T17:30:12.764Z,9.32
2018-05-11T17:32:40.251Z,9.90
2018-05-11T17:35:07.719Z,8.82
2018-05-11T17:37:35.202Z,8.45
2018-05-11T17:40:02.667Z,9.02
2018-05-11T17:42:30.188Z,10.13
2018-05-11T17:44:57.711Z,9.65
2018-05-11T17:47:25.214Z,9.55
2018-05-11T17:49:52.694Z,9.32
2018-05-11T17:52:20.191Z,10.80
2018-05-11T17:54:47.695Z,11.63
2018-05-11T17:57:15.198Z,12.07
2018-05-11T17:59:42.800Z,10.82
2018-05-11T18:02:10.291Z,10.43
2018-05-11T18:04:37.798Z,11.52
2018-05-11T18:07:05.268Z,11.10
2018-05-11T18:09:32.770Z,11.25
2018-05-11T18:12:00.346Z,11.88
2018-05-11T18:14:27.775Z,12.50
2018-05-11T18:16:55.247Z,12.65
2018-05-11T18:19:22.834Z,13.65
2018-05-11T18:21:50.302Z,12.90
2018-05-11T18:24:17.848Z,12.65
2018-05-11T18:26:45.418Z,13.25
2018-05-11T18:29:12.909Z,13.62
2018-05-11T18:31:40.430Z,12.80
2018-05-11T18:34:07.987Z,13.55
2018-05-11T18:36:35.484Z,13.15
2018-05-11T18:39:03.007Z,12.27
2018-05-11T18:41:30.566Z,13.00
2018-05-11T18:43:58.127Z,12.63
2018-05-11T18:46:25.614Z,13.93
2018-05-11T18:48:53.106Z,14.38
2018-05-11T18:51:20.575Z,13.20
2018-05-11T18:53:48.392Z,13.50
2018-05-11T18:56:15.615Z,13.80
2018-05-11T18:58:43.099Z,13.90
2018-05-11T19:01:10.581Z,13.70
2018-05-11T19:03:38.102Z,13.10
2018-05-11T19:06:05.596Z,14.15
2018-05-11T19:08:33.103Z,13.47
2018-05-11T19:11:00.599Z,14.87
2018-05-11T19:16:02.367Z,12.83
2018-05-11T19:18:29.838Z,11.60
2018-05-11T19:20:57.358Z,10.80
2018-05-11T19:23:24.860Z,9.80
2018-05-11T19:25:52.356Z,9.23
2018-05-11T19:28:19.889Z,9.20
2018-05-11T19:30:47.423Z,7.32
2018-05-11T19:33:14.907Z,6.73
2018-05-11T19:35:42.427Z,7.27
2018-05-11T19:38:09.895Z,7.00
2018-05-11T19:40:37.387Z,8.03
2018-05-11T19:43:04.891Z,7.27
2018-05-11T19:45:32.379Z,8.10
2018-05-11T19:47:59.942Z,11.57
2018-05-11T19:50:27.442Z,13.30
2018-05-11T19:52:54.946Z,16.47
2018-05-11T19:55:22.460Z,13.87
2018-05-11T19:57:49.970Z,12.35
2018-05-11T20:00:17.481Z,12.00
2018-05-11T20:02:44.960Z,13.37
2018-05-11T20:05:12.476Z,11.47
2018-05-11T20:07:40.035Z,11.00
2018-05-11T20:10:07.526Z,9.87
2018-05-11T20:12:35.012Z,10.70
2018-05-11T20:15:02.550Z,11.07
2018-05-11T20:17:30.127Z,11.10
2018-05-11T20:19:57.673Z,10.10
2018-05-11T20:22:25.153Z,10.07
2018-05-11T20:24:52.781Z,9.73
2018-05-11T20:27:20.239Z,9.97
2018-05-11T20:29:47.707Z,9.90
2018-05-11T20:32:15.219Z,10.87
2018-05-11T20:34:42.808Z,10.07
2018-05-11T20:37:10.336Z,12.43
2018-05-11T20:39:37.851Z,11.60
2018-05-11T20:42:05.346Z,9.50
2018-05-11T20:44:32.871Z,9.77
2018-05-11T20:47:00.366Z,9.37
2018-05-11T20:49:27.980Z,9.53
2018-05-11T20:51:55.523Z,9.80
2018-05-11T20:54:23.076Z,9.37
2018-05-11T20:56:50.655Z,9.07
2018-05-11T20:59:18.126Z,10.17
2018-05-11T21:01:45.614Z,9.93
2018-05-11T21:04:13.110Z,9.77
2018-05-11T21:06:40.604Z,10.80
2018-05-11T21:09:08.155Z,10.60
2018-05-11T21:11:35.647Z,10.03
2018-05-11T21:14:03.120Z,12.23
2018-05-11T21:16:30.631Z,12.43
2018-05-11T21:18:58.111Z,10.07
2018-05-11T21:21:25.626Z,10.07
2018-05-11T21:23:53.093Z,8.73
2018-05-11T21:26:20.663Z,8.87
2018-05-11T21:28:48.128Z,9.70
2018-05-11T21:31:15.699Z,8.80
2018-05-11T21:33:43.166Z,9.77
2018-05-11T21:36:10.640Z,11.63
2018-05-11T21:38:38.231Z,12.07
2018-05-11T21:41:05.801Z,11.40
2018-05-11T21:43:33.252Z,11.30
2018-05-11T21:46:00.719Z,12.30
2018-05-11T21:48:28.222Z,10.83
2018-05-11T21:50:55.699Z,10.70
2018-05-11T21:53:23.202Z,12.50
2018-05-11T21:55:50.768Z,13.37
2018-05-11T21:58:18.289Z,12.87
2018-05-11T22:00:45.782Z,14.53
2018-05-11T22:03:13.278Z,14.47
2018-05-11T22:05:40.777Z,15.13
2018-05-11T22:08:08.267Z,13.47
2018-05-11T22:10:35.739Z,13.67
2018-05-11T22:13:03.228Z,13.10
2018-05-11T22:15:30.730Z,13.60
2018-05-11T22:17:58.236Z,13.03
2018-05-11T22:20:25.730Z,13.03
2018-05-11T22:22:53.223Z,12.70
2018-05-11T22:25:20.690Z,12.03
2018-05-11T22:27:48.370Z,10.03
2018-05-11T22:30:15.839Z,10.87
2018-05-11T22:32:43.451Z,9.77
2018-05-11T22:35:10.927Z,8.93
2018-05-11T22:37:38.473Z,10.17
2018-05-11T22:40:06.018Z,11.00
2018-05-11T22:42:33.593Z,12.07
2018-05-11T22:45:01.067Z,10.90
2018-05-11T22:47:28.603Z,10.73
2018-05-11T22:49:56.162Z,10.50
2018-05-11T22:52:23.631Z,11.03
2018-05-11T22:54:51.188Z,11.20
2018-05-11T22:57:18.659Z,10.40
2018-05-11T22:59:46.199Z,10.00
2018-05-11T23:02:13.794Z,10.23
2018-05-11T23:04:41.307Z,9.47
2018-05-11T23:07:08.876Z,9.10
2018-05-11T23:09:36.435Z,9.23
2018-05-11T23:12:03.898Z,7.93
2018-05-11T23:14:31.387Z,9.60
2018-05-11T23:16:58.855Z,11.43
2018-05-11T23:19:26.395Z,12.53
2018-05-11T23:21:53.931Z,13.50
2018-05-11T23:24:21.482Z,13.73
2018-05-11T23:26:49.056Z,12.37
2018-05-11T23:29:16.550Z,12.33
2018-05-11T23:31:44.021Z,11.57
2018-05-11T23:34:11.598Z,11.90
2018-05-11T23:36:39.070Z,12.53
2018-05-11T23:39:06.641Z,12.27
2018-05-11T23:41:34.111Z,13.40
2018-05-11T23:44:01.617Z,13.27
2018-05-11T23:46:29.107Z,13.50
2018-05-11T23:48:56.603Z,13.27
2018-05-11T23:51:24.083Z,13.77
2018-05-11T23:53:51.653Z,12.43
2018-05-11T23:56:19.126Z,13.33
2018-05-11T23:58:46.614Z,13.13
